Winnipeg James Armstrong Richardson International Airport
CYWG : now visible

Airfield :











YOU CAN JOIN US ON...

 
LOGIN :

Register | Disclaimer

   EN    FR    IT 

 









Legend :    VFR   Marginal VFR   IFR   Intensive IFR   Very Intensive IFR
Visi :
Ceiling :
>= 8 km
>= 3000ft
5 to 8 km
1000 to 3000 ft
1500m to 5 km
500 to 1000 ft
800 to 1500m
200 to 500 ft
< 800m
< 200 ft
Symbols :   Thunderstorms  Fog  Heavy snow  Heavy precipitations  Wind > 20 kt







- Airport Elevation : 783 ft
- IATA code : YWG


CYWG - Winnipeg James Armstrong Richardson International

CURRENT METAR :
  • 252000Z 33004KT 290V350 15SM FEW250 M00/M14 A3043 RMK CI1 SLP324

EXPIRED METARs :
  • 251900Z 36004KT 310V020 15SM FEW250 M01/M16 A3045 RMK CI1 SLP331
  • 251800Z 33004KT 290V020 15SM FEW250 M02/M15 A3047 RMK CI2 SLP335

TAF TAF CYWG
Valid from the 25 at 18:00 until the 26 at 18:00 UTC


251738Z 2518/2618 VRB03KT P6SM SKC
BECMG 2519/2521 18010KT
FM260300 18012KT P6SM FEW008 SCT015
TEMPO 2603/2609 SCT008 BKN015
FM260900 18012KT P6SM SCT008 OVC012
TEMPO 2609/2618 3SM BR OVC008
PROB30 2610/2614 1SM -FZDZ BR OVC004 RMK NXT FCST BY 260000Z
CZWG FIR / North America



MET'MAP, your aeronautical weather chart ! - Copyright ORBIFLY December 2007 - Disclaimer

ORBIFLY MET'MAP TEAM :

Programming & Development : Alexandra Zaïnal
Concept & Development : Baudouin d'Aumeries
Co-Development & Prog : Marc-Olivier Méhu
Technical & hardware support : Manuel Goepfert

Contact : metmap@orbifly.com




SOURCES & CREDITS :

   NOAA       Earth
Advisory